• Join FlightAware (Why Join?)
  • Login
  • US Flag 
02:42PM EDT


 

Airport Tracker/Info


-or-


 

Live Flight TrackerFlight Track Log ✈ EJA831 ✈ 24-Jul-2013 ✈ KACK - KISP

Flight Track Log - Related Links

Times and Time Zones

All times are in EDT time to prevent confusion due to time zone crossing. See the EJA831 flight status page for this flight to view local times or setup timezone preferences in your user account.

Time Position Orientation Groundspeed Altitude Reporting Facility
EDT Latitude Longitude Course Direction KTS MPH feet Rate Location/Type
05:27PM 41.1836 -70.1839 237° Southwest 242 278 6,400  Level Boston Center
05:28PM 41.2144 -70.2683 296° West 224 258 9,900 2,580 Climbing Boston Center
05:29PM 41.2514 -70.3417 304° West 229 264 11,600 2,160 Climbing Boston Center
05:30PM 41.3117 -70.4586 304° West 294 338 14,300 2,160 Climbing Boston Center
05:31PM 41.3719 -70.5703 306° West 333 383 16,000 840 Climbing Boston Center
05:32PM 41.3724 -70.6602 256° West  Level FlightAware Approximate
05:32PM 41.3778 -70.6722 274° West 310 357 16,000  Level Boston Center
05:33PM 41.3525 -70.7947 255° West 303 349 16,000  Level Boston Center
05:34PM 41.3289 -70.8919 252° West 309 356 16,000 -360 Level Boston Center
05:35PM 41.3014 -71.0144 253° West 319 367 15,300 -1,140 Descending Boston Center
05:36PM 41.2736 -71.1172 250° West 309 356 13,800 -1,680 Descending Boston Center
05:37PM 41.2414 -71.2283 249° West 319 367 12,000 -1,560 Descending Boston Center
05:38PM 41.1881 -71.2956 223° Southwest 303 349 10,600 -1,020 Descending Boston Center
05:39PM 41.1406 -71.3597 226° Southwest 308 354 10,000 -300 Descending Boston Center
05:40PM 41.0664 -71.4517 223° Southwest 313 360 10,000  Level Boston Center
05:41PM 41.0044 -71.5269 223° Southwest 313 360 10,000 -60 Level Boston Center
05:42PM 40.9783 -71.6264 251° West 291 335 9,900 -60 Descending Boston Center
05:43PM 40.9686 -71.7364 263° West 300 345 9,900 60 Level Boston Center
05:44PM 40.9647 -71.8133 266° West 300 345 10,000  Climbing Boston Center
05:45PM 40.9508 -71.9536 263° West 300 345 9,900 -60 Descending Boston Center
05:46PM 40.9367 -72.0636 260° West 300 345 9,900 -960 Level Boston Center
05:47PM 40.9203 -72.1489 256° West 278 320 8,000 -2,100 Descending Boston Center
05:48PM 40.9039 -72.2369 256° West 258 297 5,800 -1,980 Descending Boston Center
05:49PM 40.8831 -72.3303 254° West 258 297 4,100 -900 Descending Boston Center
05:50PM 40.8644 -72.4208 255° West 258 297 4,000 -60 Descending Boston Center
05:51PM 40.8458 -72.5114 255° West 258 297 4,000  Level Boston Center
05:52PM 40.8269 -72.6019 255° West 258 297 4,000  Level Boston Center
05:53PM 40.8058 -72.7253 257° West 264 304 4,000  Level Boston Center
05:55PM 40.7889 -72.8128 256° West 257 296 4,100 -420 Climbing Boston Center
05:56PM 40.7614 -72.9197 251° West 268 308 3,100 -1,140 Descending Boston Center
05:57PM 40.7464 -72.9989 256° West 240 276 1,900 -960 Descending Boston Center
05:58PM 40.7564 -73.0564 283° West 187 215 1,200 -840 Descending Boston Center
05:59PM 40.7833 -73.0869 319° Northwest 147 169 300 -540 Descending Boston Center
06:00PM 40.7978 -73.1336 292° West 141 162 200 5,340 Descending Boston Center
06:01PM 40.8119 -73.1806 292° West 141 162 11,000 5,400 Climbing Boston Center
06:02PM 40.8283 -73.2300 294° West 141 162 11,000  Level Boston Center